createdAt,value
2022-11-13T00:05:03.908Z,42.50
2022-11-13T00:10:21.452Z,44.60
2022-11-13T00:15:38.721Z,40.75
2022-11-13T00:20:57.935Z,39.88
2022-11-13T00:26:17.664Z,36.13
2022-11-13T00:31:35.098Z,32.92
2022-11-13T00:36:53.644Z,30.90
2022-11-13T00:42:10.567Z,32.53
2022-11-13T00:47:27.560Z,34.05
2022-11-13T00:52:46.704Z,30.83
2022-11-13T00:58:04.985Z,31.50
2022-11-13T01:03:22.144Z,30.85
2022-11-13T01:08:40.677Z,36.38
2022-11-13T01:13:58.311Z,37.38
2022-11-13T01:19:15.530Z,24.10
2022-11-13T01:24:33.999Z,25.65
2022-11-13T01:29:51.050Z,28.42
2022-11-13T01:35:08.884Z,21.98
2022-11-13T01:40:27.327Z,28.23
2022-11-13T01:46:15.522Z,29.08
2022-11-13T01:51:36.288Z,27.10
2022-11-13T01:56:56.963Z,28.67
2022-11-13T02:02:14.264Z,25.08
2022-11-13T02:07:31.511Z,55.42
2022-11-13T02:12:52.653Z,28.48
2022-11-13T02:18:12.304Z,30.83
2022-11-13T02:23:37.470Z,22.45
2022-11-13T02:28:56.106Z,21.98
2022-11-13T02:34:13.078Z,26.83
2022-11-13T02:39:30.417Z,25.10
2022-11-13T02:44:49.083Z,25.58
2022-11-13T02:50:07.695Z,25.35
2022-11-13T02:55:24.949Z,27.85
2022-11-13T03:00:43.470Z,24.38
2022-11-13T03:06:00.899Z,31.25
2022-11-13T03:11:18.252Z,24.60
2022-11-13T03:16:37.263Z,26.52
2022-11-13T03:21:54.493Z,25.90
2022-11-13T03:27:11.428Z,24.75
2022-11-13T03:32:30.030Z,22.70
2022-11-13T03:37:46.899Z,22.90
2022-11-13T03:43:04.288Z,25.60
2022-11-13T03:48:23.208Z,23.92
2022-11-13T03:53:40.591Z,27.08
2022-11-13T03:58:57.593Z,26.45
2022-11-13T04:04:16.951Z,31.73
2022-11-13T04:09:34.407Z,29.30
2022-11-13T04:14:51.345Z,35.95
2022-11-13T04:20:10.980Z,34.35
2022-11-13T04:25:28.678Z,35.50
2022-11-13T04:30:45.813Z,31.95
2022-11-13T04:36:05.021Z,36.38
2022-11-13T04:41:40.217Z,34.45
2022-11-13T04:46:57.604Z,38.13
2022-11-13T04:52:16.482Z,39.28
2022-11-13T04:57:33.620Z,43.25
2022-11-13T05:02:50.883Z,34.17
2022-11-13T05:08:10.542Z,33.30
2022-11-13T05:13:27.720Z,35.65
2022-11-13T05:18:44.784Z,38.30
2022-11-13T05:24:03.547Z,35.75
2022-11-13T05:29:20.791Z,36.00
2022-11-13T05:34:38.023Z,32.22
2022-11-13T05:39:56.602Z,35.13
2022-11-13T05:45:14.080Z,30.88
2022-11-13T05:50:31.315Z,33.70
2022-11-13T05:55:49.825Z,35.33
2022-11-13T06:01:10.159Z,31.83
2022-11-13T06:06:28.596Z,30.55
2022-11-13T06:11:47.222Z,30.38
2022-11-13T06:17:04.172Z,37.83
2022-11-13T06:22:21.401Z,32.20
2022-11-13T06:27:39.661Z,36.50
2022-11-13T06:32:56.740Z,32.40
2022-11-13T06:38:13.834Z,34.60
2022-11-13T06:43:33.177Z,31.73
2022-11-13T06:48:51.091Z,36.33
2022-11-13T06:54:08.622Z,35.33
2022-11-13T06:59:27.499Z,39.63
2022-11-13T07:04:44.675Z,48.63
2022-11-13T07:10:01.800Z,48.30
2022-11-13T07:15:20.232Z,32.33
2022-11-13T07:20:37.436Z,35.08
2022-11-13T07:25:55.477Z,32.92
2022-11-13T07:31:15.469Z,34.05
2022-11-13T07:36:32.917Z,35.42
2022-11-13T07:41:50.041Z,30.85
2022-11-13T07:47:08.400Z,34.53
2022-11-13T07:52:25.349Z,33.92
2022-11-13T07:57:42.616Z,32.83
2022-11-13T08:03:06.236Z,33.40
2022-11-13T08:08:23.445Z,28.42
2022-11-13T08:13:40.702Z,33.92
2022-11-13T08:18:59.153Z,38.33
2022-11-13T08:24:16.211Z,35.20
2022-11-13T08:29:35.504Z,32.13
2022-11-13T08:34:54.012Z,30.00
2022-11-13T08:40:12.459Z,35.53
2022-11-13T08:45:31.053Z,29.15
2022-11-13T08:50:52.938Z,28.15
2022-11-13T08:56:09.963Z,28.90
2022-11-13T09:01:27.425Z,27.60
2022-11-13T09:06:46.146Z,25.45
2022-11-13T09:12:03.411Z,25.40
2022-11-13T09:17:20.501Z,25.13
2022-11-13T09:22:39.371Z,29.50
2022-11-13T09:27:58.026Z,36.08
2022-11-13T09:33:15.660Z,37.28
2022-11-13T09:38:34.558Z,26.20
2022-11-13T09:43:59.340Z,24.92
2022-11-13T09:49:19.024Z,25.52
2022-11-13T09:54:37.818Z,28.63
2022-11-13T10:00:00.977Z,27.17
2022-11-13T10:10:55.639Z,24.77
2022-11-13T10:16:30.011Z,24.15
2022-11-13T10:22:07.554Z,23.73
2022-11-13T10:27:31.932Z,25.20
2022-11-13T10:32:49.378Z,23.85
2022-11-13T10:38:10.307Z,26.65
2022-11-13T10:43:29.466Z,23.40
2022-11-13T10:48:46.720Z,21.63
2022-11-13T10:54:21.685Z,26.55
2022-11-13T10:59:42.842Z,24.50
2022-11-13T11:05:04.500Z,23.95
2022-11-13T11:10:24.969Z,23.40
2022-11-13T11:15:49.237Z,22.77
2022-11-13T11:21:11.054Z,22.02
2022-11-13T11:26:33.622Z,26.87
2022-11-13T11:31:56.056Z,26.63
2022-11-13T11:37:16.022Z,27.50
2022-11-13T11:42:40.606Z,24.90
2022-11-13T11:48:01.946Z,24.63
2022-11-13T11:53:29.817Z,25.73
2022-11-13T11:59:04.416Z,23.98
2022-11-13T12:04:40.327Z,25.48
2022-11-13T12:10:10.315Z,39.95
2022-11-13T12:15:37.234Z,27.00
2022-11-13T12:21:06.278Z,22.27
2022-11-13T12:26:28.557Z,24.85
2022-11-13T12:31:56.215Z,25.38
2022-11-13T12:37:18.895Z,22.25
2022-11-13T12:42:40.906Z,22.73
2022-11-13T12:48:08.623Z,25.33
2022-11-13T12:53:29.155Z,22.33
2022-11-13T12:59:24.215Z,26.98
2022-11-13T13:04:59.787Z,23.98
2022-11-13T13:10:26.242Z,25.02
2022-11-13T13:15:47.571Z,20.38
2022-11-13T13:21:08.652Z,20.77
2022-11-13T13:26:30.132Z,21.30
2022-11-13T13:31:53.946Z,20.83
2022-11-13T13:37:22.835Z,22.58
2022-11-13T13:42:57.130Z,25.42
2022-11-13T13:48:18.086Z,21.65
2022-11-13T13:53:37.601Z,21.35
2022-11-13T13:58:56.367Z,20.15
2022-11-13T14:04:18.580Z,20.90
2022-11-13T14:09:35.853Z,22.13
2022-11-13T14:14:54.560Z,21.55
2022-11-13T14:20:13.948Z,18.95
2022-11-13T14:25:31.169Z,22.27
2022-11-13T14:30:57.541Z,23.63
2022-11-13T14:36:16.399Z,19.80
2022-11-13T14:41:36.573Z,22.00
2022-11-13T14:47:02.733Z,24.73
2022-11-13T14:52:28.181Z,27.50
2022-11-13T14:57:49.632Z,48.30
2022-11-13T15:03:07.948Z,38.58
2022-11-13T15:08:25.529Z,43.00
2022-11-13T15:13:43.380Z,77.00
2022-11-13T15:19:03.916Z,49.38
2022-11-13T15:24:20.967Z,44.60
2022-11-13T15:29:38.266Z,41.17
2022-11-13T15:34:56.535Z,46.22
2022-11-13T15:40:14.842Z,61.58
2022-11-13T15:45:32.075Z,61.42
2022-11-13T15:50:50.912Z,62.35
2022-11-13T15:56:09.005Z,141.25
2022-11-13T16:01:26.494Z,45.92
2022-11-13T16:06:46.147Z,64.82
2022-11-13T16:12:04.043Z,65.88
2022-11-13T16:17:21.355Z,71.55
2022-11-13T16:22:40.152Z,83.13
2022-11-13T16:27:57.535Z,82.70
2022-11-13T16:33:14.701Z,85.35
2022-11-13T16:38:36.174Z,115.22
2022-11-13T16:43:53.409Z,105.70
2022-11-13T16:49:18.882Z,121.13
2022-11-13T16:54:37.547Z,102.70
2022-11-13T16:59:55.172Z,103.00
2022-11-13T17:05:14.225Z,116.53
2022-11-13T17:10:33.577Z,136.48
2022-11-13T17:15:50.748Z,174.20
2022-11-13T17:21:07.896Z,101.53
2022-11-13T17:26:27.263Z,93.97
2022-11-13T17:31:44.397Z,80.18
2022-11-13T17:37:02.137Z,76.72
2022-11-13T17:42:20.934Z,84.05
2022-11-13T17:47:38.432Z,58.85
2022-11-13T17:52:55.927Z,85.93
2022-11-13T17:58:14.194Z,88.88
2022-11-13T18:03:31.599Z,90.10
2022-11-13T18:08:49.154Z,84.47
2022-11-13T18:14:07.539Z,81.68
2022-11-13T18:19:24.934Z,108.38
2022-11-13T18:24:44.329Z,115.82
2022-11-13T18:30:03.355Z,100.75
2022-11-13T18:35:20.494Z,89.07
2022-11-13T18:40:39.972Z,80.63
2022-11-13T18:46:00.070Z,84.25
2022-11-13T18:51:19.490Z,100.10
2022-11-13T18:56:36.889Z,103.70
2022-11-13T19:01:55.770Z,89.60
2022-11-13T19:07:13.403Z,81.53
2022-11-13T19:12:30.727Z,70.47
2022-11-13T19:17:52.790Z,96.45
2022-11-13T19:23:10.370Z,90.18
2022-11-13T19:28:28.285Z,94.55
2022-11-13T19:33:47.746Z,83.15
2022-11-13T19:39:05.720Z,80.05
2022-11-13T19:44:23.347Z,95.60
2022-11-13T19:49:42.704Z,102.45
2022-11-13T19:55:01.507Z,108.07
2022-11-13T20:00:20.228Z,76.25
2022-11-13T20:05:44.250Z,77.78
2022-11-13T20:11:23.521Z,74.65
2022-11-13T20:16:42.289Z,73.25
2022-11-13T20:22:02.606Z,71.00
2022-11-13T20:27:20.044Z,74.35
2022-11-13T20:32:38.216Z,66.15
2022-11-13T20:37:58.611Z,61.15
2022-11-13T20:43:18.835Z,66.75
2022-11-13T20:48:36.607Z,67.13
2022-11-13T20:53:57.275Z,67.43
2022-11-13T20:59:16.424Z,93.53
2022-11-13T21:04:34.569Z,77.63
2022-11-13T21:09:54.285Z,63.38
2022-11-13T21:15:12.991Z,58.35
2022-11-13T21:20:30.328Z,57.83
2022-11-13T21:26:00.078Z,50.42
2022-11-13T21:31:20.652Z,51.42
2022-11-13T21:36:38.525Z,51.60
2022-11-13T21:41:57.225Z,54.42
2022-11-13T21:47:16.167Z,61.38
2022-11-13T21:52:34.005Z,59.15
2022-11-13T21:57:52.487Z,61.83
2022-11-13T22:03:10.041Z,58.60
2022-11-13T22:08:27.976Z,63.28
2022-11-13T22:13:47.041Z,61.33
2022-11-13T22:19:05.792Z,66.28
2022-11-13T22:24:23.373Z,67.38
2022-11-13T22:29:41.992Z,65.60
2022-11-13T22:34:59.584Z,70.05
2022-11-13T22:40:16.721Z,63.28
2022-11-13T22:45:35.994Z,54.28
2022-11-13T22:50:53.547Z,54.95
2022-11-13T22:56:12.985Z,57.42
2022-11-13T23:01:33.184Z,47.72
2022-11-13T23:06:50.229Z,46.60
2022-11-13T23:12:07.447Z,45.55
2022-11-13T23:17:26.188Z,49.35
2022-11-13T23:22:43.731Z,44.65
2022-11-13T23:28:03.152Z,49.40
2022-11-13T23:33:22.120Z,55.33
2022-11-13T23:38:39.399Z,61.97
2022-11-13T23:44:12.295Z,54.58
2022-11-13T23:49:30.907Z,48.08
2022-11-13T23:54:48.457Z,44.42
